Time;durP1;ratioP1;P1;durP2;ratioP2;P2;SDS_P1;SDS_P2;PMS_P1;PMS_P2;Temp;Humidity;BMP_temperature;BMP_pressure;BME280_temperature;BME280_humidity;BME280_pressure;Samples;Min_cycle;Max_cycle;Signal;HPM_P1;HPM_P2
2024/04/25 00:00:43;;;;;;;2.23;2.13;;;;;;;;;;5523072;26;20824;-61
2024/04/25 00:03:12;;;;;;;2.27;2.17;;;;;;;;;;5517683;26;20277;-60
2024/04/25 00:05:41;;;;;;;2.70;2.60;;;;;;;;;;5525923;26;20222;-60
2024/04/25 00:08:10;;;;;;;3.00;2.77;;;;;;;;;;5525634;26;20220;-60
2024/04/25 00:10:42;;;;;;;2.83;2.63;;;;;;;;;;5525268;26;20559;-60
2024/04/25 00:13:11;;;;;;;3.57;3.37;;;;;;;;;;5517258;26;20290;-59
2024/04/25 00:15:40;;;;;;;3.10;2.67;;;;;;;;;;5507535;26;20270;-60
2024/04/25 00:18:09;;;;;;;3.13;2.93;;;;;;;;;;5489135;26;20249;-60
2024/04/25 00:20:38;;;;;;;3.10;2.93;;;;;;;;;;5488169;26;20708;-60
2024/04/25 00:23:10;;;;;;;3.77;3.60;;;;;;;;;;5495845;26;20235;-60
2024/04/25 00:25:41;;;;;;;3.73;3.53;;;;;;;;;;5515739;26;20235;-60
2024/04/25 00:28:10;;;;;;;4.03;3.83;;;;;;;;;;5488647;26;20224;-59
2024/04/25 00:30:39;;;;;;;3.63;3.40;;;;;;;;;;5488120;26;20717;-60
2024/04/25 00:33:12;;;;;;;3.30;3.10;;;;;;;;;;5496446;26;20281;-61
2024/04/25 00:35:40;;;;;;;3.97;3.60;;;;;;;;;;5520971;26;20231;-60
2024/04/25 00:38:12;;;;;;;5.07;4.67;;;;;;;;;;5509993;26;20226;-60
2024/04/25 00:40:46;;;;;;;4.50;4.20;;;;;;;;;;5523538;26;21051;-60
2024/04/25 00:43:15;;;;;;;4.47;4.17;;;;;;;;;;5524605;26;20790;-59
2024/04/25 00:45:44;;;;;;;3.97;3.67;;;;;;;;;;5525777;26;20270;-60
2024/04/25 00:48:13;;;;;;;4.17;3.87;;;;;;;;;;5523946;26;20226;-60
2024/04/25 00:50:42;;;;;;;4.07;3.77;;;;;;;;;;5517296;26;20231;-60
2024/04/25 00:53:15;;;;;;;4.13;3.90;;;;;;;;;;5524360;26;20228;-60
2024/04/25 00:55:47;;;;;;;4.07;3.87;;;;;;;;;;5525288;26;20267;-60
2024/04/25 00:58:17;;;;;;;4.43;4.10;;;;;;;;;;5525241;26;20286;-60
2024/04/25 01:00:47;;;;;;;5.67;5.13;;;;;;;;;;5521042;26;20230;-60
2024/04/25 01:03:17;;;;;;;5.30;4.80;;;;;;;;;;5510874;26;20232;-60
2024/04/25 01:05:47;;;;;;;4.87;4.57;;;;;;;;;;5525462;26;20217;-60
2024/04/25 01:08:16;;;;;;;5.47;5.07;;;;;;;;;;5524972;26;20262;-60
2024/04/25 01:10:50;;;;;;;5.07;4.70;;;;;;;;;;5523388;26;20241;-60
2024/04/25 01:13:19;;;;;;;4.93;4.63;;;;;;;;;;5513616;26;20610;-60
2024/04/25 01:15:48;;;;;;;4.97;4.67;;;;;;;;;;5521608;26;20231;-60
2024/04/25 01:18:16;;;;;;;5.07;4.67;;;;;;;;;;5509966;26;20269;-60
2024/04/25 01:20:45;;;;;;;5.33;4.93;;;;;;;;;;5524517;26;20214;-61
2024/04/25 01:23:15;;;;;;;4.87;4.50;;;;;;;;;;5523183;26;20319;-61
2024/04/25 01:25:48;;;;;;;4.40;4.10;;;;;;;;;;5509322;26;20227;-61
2024/04/25 01:28:18;;;;;;;5.30;4.90;;;;;;;;;;5524812;26;20608;-60
2024/04/25 01:30:48;;;;;;;5.17;4.80;;;;;;;;;;5523919;26;20253;-61
2024/04/25 01:33:18;;;;;;;4.90;4.60;;;;;;;;;;5523944;26;20226;-60
2024/04/25 01:35:48;;;;;;;4.43;4.17;;;;;;;;;;5521030;26;20571;-60
2024/04/25 01:38:17;;;;;;;5.80;5.30;;;;;;;;;;5505012;26;20248;-61
2024/04/25 01:40:50;;;;;;;5.47;5.17;;;;;;;;;;5487036;26;20706;-61
2024/04/25 01:43:19;;;;;;;5.13;4.70;;;;;;;;;;5495029;26;20275;-60
2024/04/25 01:45:48;;;;;;;5.17;4.77;;;;;;;;;;5524100;26;20569;-59
2024/04/25 01:48:17;;;;;;;4.23;3.97;;;;;;;;;;5523981;26;20756;-60
2024/04/25 01:50:46;;;;;;;4.40;3.90;;;;;;;;;;5516412;26;20233;-59
2024/04/25 01:53:15;;;;;;;4.07;3.87;;;;;;;;;;5527770;26;20239;-59
2024/04/25 01:55:44;;;;;;;4.63;4.23;;;;;;;;;;5528073;26;20223;-59
2024/04/25 01:58:15;;;;;;;4.37;4.07;;;;;;;;;;5528100;26;20222;-59
2024/04/25 02:00:44;;;;;;;4.17;3.87;;;;;;;;;;5526296;26;20225;-59
2024/04/25 02:03:15;;;;;;;4.47;4.17;;;;;;;;;;5511473;26;20228;-60
2024/04/25 02:05:44;;;;;;;4.40;4.10;;;;;;;;;;5527803;26;20215;-59
2024/04/25 02:08:13;;;;;;;4.37;4.07;;;;;;;;;;5527634;26;20219;-60
2024/04/25 02:10:42;;;;;;;4.73;4.33;;;;;;;;;;5525833;26;20506;-60
2024/04/25 02:13:14;;;;;;;4.03;3.77;;;;;;;;;;5513621;26;20732;-59
2024/04/25 02:15:46;;;;;;;4.40;4.10;;;;;;;;;;5527364;26;20605;-60
2024/04/25 02:18:15;;;;;;;4.00;3.80;;;;;;;;;;5527332;26;20573;-60
2024/04/25 02:26:13;;;;;;;3.97;3.77;;;;;;;;;;5496541;26;20278;-60
2024/04/25 02:28:42;;;;;;;4.13;3.83;;;;;;;;;;5490375;26;20561;-60
2024/04/25 02:31:19;;;;;;;3.83;3.63;;;;;;;;;;5489762;26;20257;-60
2024/04/25 02:33:48;;;;;;;3.87;3.57;;;;;;;;;;5502023;26;20282;-60
2024/04/25 02:36:18;;;;;;;4.37;4.07;;;;;;;;;;5522460;26;20230;-60
2024/04/25 02:38:47;;;;;;;7.03;4.53;;;;;;;;;;5488892;26;20224;-60
2024/04/25 02:41:16;;;;;;;4.37;4.07;;;;;;;;;;5489481;26;20216;-60
2024/04/25 02:43:45;;;;;;;4.57;4.10;;;;;;;;;;5499726;26;20227;-60
2024/04/25 02:46:13;;;;;;;5.13;4.73;;;;;;;;;;5524956;26;20922;-60
2024/04/25 02:48:42;;;;;;;4.70;4.40;;;;;;;;;;5526848;26;20727;-60
2024/04/25 02:51:09;;;;;;;4.00;3.70;;;;;;;;;;5523809;26;20225;-60
2024/04/25 02:53:38;;;;;;;5.20;4.80;;;;;;;;;;5526360;26;20234;-60
2024/04/25 02:56:04;;;;;;;5.03;4.67;;;;;;;;;;5526796;26;20606;-60
2024/04/25 02:58:33;;;;;;;4.53;4.23;;;;;;;;;;5524538;26;20280;-60
2024/04/25 03:00:59;;;;;;;5.03;4.63;;;;;;;;;;5526181;26;20333;-60
2024/04/25 03:03:32;;;;;;;5.43;4.97;;;;;;;;;;5495825;26;20310;-60
2024/04/25 03:05:58;;;;;;;4.33;4.03;;;;;;;;;;5526766;26;20379;-60
2024/04/25 03:08:27;;;;;;;5.67;5.23;;;;;;;;;;5526607;26;20222;-60
2024/04/25 03:10:54;;;;;;;5.77;5.37;;;;;;;;;;5521498;26;20260;-60
2024/04/25 03:13:23;;;;;;;5.37;4.97;;;;;;;;;;5509173;26;20278;-60
2024/04/25 03:15:49;;;;;;;5.50;5.10;;;;;;;;;;5526620;26;20261;-60
2024/04/25 03:18:18;;;;;;;5.63;5.23;;;;;;;;;;5526476;26;20329;-60
2024/04/25 03:20:47;;;;;;;5.63;5.20;;;;;;;;;;5526031;26;20262;-61
2024/04/25 03:23:15;;;;;;;5.33;4.93;;;;;;;;;;5521878;26;20282;-60
2024/04/25 03:25:42;;;;;;;4.53;4.23;;;;;;;;;;5513294;26;20282;-60
2024/04/25 03:28:13;;;;;;;5.13;4.83;;;;;;;;;;5522197;26;20337;-60
2024/04/25 03:30:39;;;;;;;5.60;4.93;;;;;;;;;;5525833;26;20217;-61
2024/04/25 03:33:09;;;;;;;4.23;3.93;;;;;;;;;;5526122;26;20783;-60
2024/04/25 03:35:36;;;;;;;3.40;3.20;;;;;;;;;;5489629;26;20228;-61
2024/04/25 03:38:07;;;;;;;5.07;4.67;;;;;;;;;;5515608;26;20231;-61
2024/04/25 03:40:38;;;;;;;5.03;4.70;;;;;;;;;;5512608;26;20229;-60
2024/04/25 03:43:08;;;;;;;4.50;4.20;;;;;;;;;;5529826;26;20225;-60
2024/04/25 03:45:37;;;;;;;5.67;5.27;;;;;;;;;;5526135;26;20270;-60
2024/04/25 03:48:10;;;;;;;5.67;4.83;;;;;;;;;;5526165;26;20213;-60
2024/04/25 03:50:39;;;;;;;4.33;3.87;;;;;;;;;;5524195;26;20268;-60
2024/04/25 03:53:14;;;;;;;5.53;4.77;;;;;;;;;;5512371;26;20242;-61
2024/04/25 03:55:44;;;;;;;5.60;5.20;;;;;;;;;;5489345;26;20222;-61
2024/04/25 03:58:13;;;;;;;5.73;5.17;;;;;;;;;;5492793;26;20232;-60
2024/04/25 04:00:41;;;;;;;6.07;5.40;;;;;;;;;;5528709;26;20220;-60
2024/04/25 04:03:11;;;;;;;5.60;5.10;;;;;;;;;;5520556;26;20238;-60
2024/04/25 04:05:39;;;;;;;5.20;4.90;;;;;;;;;;5500810;26;20658;-61
2024/04/25 04:08:13;;;;;;;5.77;5.20;;;;;;;;;;5489094;26;20245;-61
2024/04/25 04:10:43;;;;;;;4.90;4.50;;;;;;;;;;5496234;26;20615;-61
2024/04/25 04:13:12;;;;;;;5.73;5.33;;;;;;;;;;5525327;26;20268;-61
2024/04/25 04:15:41;;;;;;;5.77;5.17;;;;;;;;;;5525431;26;20234;-60
2024/04/25 04:18:13;;;;;;;5.90;5.40;;;;;;;;;;5525136;26;21155;-60
2024/04/25 04:20:44;;;;;;;6.73;6.10;;;;;;;;;;5525044;26;20276;-61
2024/04/25 04:23:17;;;;;;;7.37;6.53;;;;;;;;;;5525310;26;20729;-60
2024/04/25 04:25:45;;;;;;;7.53;6.97;;;;;;;;;;5524375;26;20626;-61
2024/04/25 04:28:14;;;;;;;7.40;6.70;;;;;;;;;;5525096;26;20228;-60
2024/04/25 04:30:43;;;;;;;7.17;6.57;;;;;;;;;;5524643;26;20563;-61
2024/04/25 04:33:12;;;;;;;7.17;6.50;;;;;;;;;;5525081;26;20288;-61
2024/04/25 04:35:41;;;;;;;9.00;8.17;;;;;;;;;;5525066;26;20237;-61
2024/04/25 04:38:13;;;;;;;8.57;7.77;;;;;;;;;;5523801;26;20230;-61
2024/04/25 04:40:44;;;;;;;8.03;7.23;;;;;;;;;;5519451;26;20233;-61
2024/04/25 04:43:13;;;;;;;9.40;7.50;;;;;;;;;;5524665;26;20285;-60
2024/04/25 04:45:43;;;;;;;8.43;7.70;;;;;;;;;;5525553;26;20263;-60
2024/04/25 04:48:16;;;;;;;7.10;6.50;;;;;;;;;;5524957;26;20265;-60
2024/04/25 04:50:44;;;;;;;8.03;7.17;;;;;;;;;;5523804;26;20276;-61
2024/04/25 04:53:13;;;;;;;7.57;6.87;;;;;;;;;;5522483;26;20234;-60
2024/04/25 04:55:45;;;;;;;6.93;6.23;;;;;;;;;;5524090;26;20280;-61
2024/04/25 04:58:16;;;;;;;8.30;7.57;;;;;;;;;;5524769;26;20230;-60
2024/04/25 05:00:45;;;;;;;7.23;6.57;;;;;;;;;;5524333;26;20233;-61
2024/04/25 05:03:16;;;;;;;7.83;7.03;;;;;;;;;;5528514;26;20234;-61
2024/04/25 05:05:45;;;;;;;9.10;7.33;;;;;;;;;;5524591;26;20230;-61
2024/04/25 05:08:14;;;;;;;7.23;6.50;;;;;;;;;;5524483;26;20295;-61
2024/04/25 05:10:46;;;;;;;7.13;6.37;;;;;;;;;;5524038;26;20272;-61
2024/04/25 05:13:15;;;;;;;8.13;7.43;;;;;;;;;;5524367;26;20230;-61
2024/04/25 05:15:44;;;;;;;7.83;6.97;;;;;;;;;;5524043;26;20226;-61
2024/04/25 05:18:13;;;;;;;8.77;7.97;;;;;;;;;;5524385;26;20228;-61
2024/04/25 05:20:42;;;;;;;6.97;6.40;;;;;;;;;;5523878;26;20229;-60
2024/04/25 05:23:12;;;;;;;8.60;7.80;;;;;;;;;;5521975;26;20237;-61
2024/04/25 05:25:41;;;;;;;7.97;7.17;;;;;;;;;;5518835;25;20231;-61
2024/04/25 05:28:14;;;;;;;10.17;7.93;;;;;;;;;;5509456;26;20752;-61
2024/04/25 05:30:43;;;;;;;8.60;7.77;;;;;;;;;;5512777;26;20742;-61
2024/04/25 05:33:12;;;;;;;8.73;7.83;;;;;;;;;;5519838;26;20239;-61
2024/04/25 05:35:41;;;;;;;7.30;6.20;;;;;;;;;;5514207;26;20561;-61
2024/04/25 05:38:14;;;;;;;7.47;6.77;;;;;;;;;;5518666;26;20283;-61
2024/04/25 05:40:42;;;;;;;9.50;7.43;;;;;;;;;;5523281;26;20227;-60
2024/04/25 05:43:16;;;;;;;7.87;6.73;;;;;;;;;;5537854;25;20233;-61
2024/04/25 05:45:45;;;;;;;6.43;5.87;;;;;;;;;;5523791;26;20579;-61
2024/04/25 05:48:13;;;;;;;6.87;6.23;;;;;;;;;;5522672;26;20274;-61
2024/04/25 05:50:42;;;;;;;7.43;6.73;;;;;;;;;;5522724;26;20280;-60
2024/04/25 05:53:14;;;;;;;7.57;5.97;;;;;;;;;;5521725;26;20577;-61
2024/04/25 05:55:43;;;;;;;6.67;6.10;;;;;;;;;;5519887;26;20276;-61
2024/04/25 05:58:12;;;;;;;7.73;7.03;;;;;;;;;;5508239;26;21030;-60
2024/04/25 06:00:43;;;;;;;8.60;6.73;;;;;;;;;;5520715;25;20268;-61
2024/04/25 06:03:12;;;;;;;6.97;6.27;;;;;;;;;;5513652;26;20241;-61
2024/04/25 06:05:41;;;;;;;8.73;6.27;;;;;;;;;;5521495;26;20230;-61
2024/04/25 06:08:11;;;;;;;6.27;5.77;;;;;;;;;;5521906;26;20226;-61
2024/04/25 06:10:40;;;;;;;6.43;5.90;;;;;;;;;;5522366;26;20230;-61
2024/04/25 06:13:12;;;;;;;7.10;6.50;;;;;;;;;;5522078;26;20233;-60
2024/04/25 06:15:44;;;;;;;8.30;6.47;;;;;;;;;;5516867;26;20271;-61
2024/04/25 06:18:13;;;;;;;7.00;6.30;;;;;;;;;;5528211;25;20280;-60
2024/04/25 06:20:42;;;;;;;6.80;6.20;;;;;;;;;;5522168;26;20229;-61
2024/04/25 06:23:13;;;;;;;7.97;7.17;;;;;;;;;;5522071;26;20230;-61
2024/04/25 06:25:43;;;;;;;6.80;6.10;;;;;;;;;;5522453;26;20280;-61
2024/04/25 06:28:12;;;;;;;7.53;6.67;;;;;;;;;;5522666;26;20226;-60
2024/04/25 06:30:41;;;;;;;6.97;6.07;;;;;;;;;;5521610;26;20265;-61
2024/04/25 06:33:13;;;;;;;5.97;5.37;;;;;;;;;;5523920;25;20235;-61
2024/04/25 06:35:42;;;;;;;7.10;6.40;;;;;;;;;;5524098;26;20270;-61
2024/04/25 06:38:14;;;;;;;5.90;5.40;;;;;;;;;;5526487;26;20231;-61
2024/04/25 06:40:43;;;;;;;6.10;5.60;;;;;;;;;;5525828;26;20230;-61
2024/04/25 06:43:13;;;;;;;7.00;6.10;;;;;;;;;;5526371;26;20290;-62
2024/04/25 06:45:43;;;;;;;7.30;6.60;;;;;;;;;;5523899;26;20234;-63
2024/04/25 06:48:15;;;;;;;13.50;7.30;;;;;;;;;;5526429;26;20247;-61
2024/04/25 06:50:44;;;;;;;7.10;4.93;;;;;;;;;;5525993;25;20735;-62
2024/04/25 06:53:14;;;;;;;4.60;4.20;;;;;;;;;;5525124;26;20231;-62
2024/04/25 06:55:43;;;;;;;4.90;4.50;;;;;;;;;;5501051;26;20242;-62
2024/04/25 06:58:12;;;;;;;4.87;4.40;;;;;;;;;;5521282;26;20222;-62
2024/04/25 07:00:41;;;;;;;4.67;4.27;;;;;;;;;;5525699;26;20230;-62
2024/04/25 07:03:10;;;;;;;6.03;4.03;;;;;;;;;;5525715;26;20283;-62
2024/04/25 07:05:42;;;;;;;3.53;3.23;;;;;;;;;;5526231;26;20555;-62
2024/04/25 07:08:12;;;;;;;5.10;3.20;;;;;;;;;;5518450;25;20227;-62
2024/04/25 07:10:41;;;;;;;4.10;3.47;;;;;;;;;;5525914;26;20221;-62
2024/04/25 07:13:13;;;;;;;4.55;4.15;;;;;;;;;;5519353;26;20942;-62
2024/04/25 07:15:42;;;;;;;3.70;3.50;;;;;;;;;;5525836;26;20348;-62
2024/04/25 07:18:14;;;;;;;4.83;3.97;;;;;;;;;;5525838;26;20788;-62
2024/04/25 07:20:46;;;;;;;4.23;3.90;;;;;;;;;;5525706;26;20553;-66
2024/04/25 07:23:15;;;;;;;6.47;4.60;;;;;;;;;;5524996;26;20226;-67
2024/04/25 07:25:45;;;;;;;4.67;4.37;;;;;;;;;;5525935;26;20727;-69
2024/04/25 07:28:14;;;;;;;4.90;4.60;;;;;;;;;;5521699;26;20276;-63
2024/04/25 07:30:44;;;;;;;5.87;5.47;;;;;;;;;;5521471;26;20279;-67
2024/04/25 07:33:13;;;;;;;6.27;5.53;;;;;;;;;;5510541;26;20857;-68
2024/04/25 07:35:44;;;;;;;5.27;4.63;;;;;;;;;;5526296;26;20213;-68
2024/04/25 07:38:18;;;;;;;3.77;3.53;;;;;;;;;;5525959;26;20216;-67
2024/04/25 07:40:47;;;;;;;3.77;3.53;;;;;;;;;;5525506;26;20218;-67
2024/04/25 07:43:16;;;;;;;4.13;3.77;;;;;;;;;;5525405;26;20233;-68
2024/04/25 07:45:45;;;;;;;3.70;3.30;;;;;;;;;;5524387;26;20230;-67
2024/04/25 07:48:14;;;;;;;3.57;3.37;;;;;;;;;;5527925;26;20216;-68
2024/04/25 07:50:43;;;;;;;2.90;2.70;;;;;;;;;;5525625;26;20261;-67
2024/04/25 07:53:12;;;;;;;3.77;3.47;;;;;;;;;;5525711;26;20242;-68
2024/04/25 07:55:43;;;;;;;3.00;2.87;;;;;;;;;;5525950;26;20216;-68
2024/04/25 07:58:12;;;;;;;2.60;2.50;;;;;;;;;;5521566;26;20234;-69
2024/04/25 08:00:41;;;;;;;2.67;2.57;;;;;;;;;;5525322;26;20751;-68
2024/04/25 08:03:11;;;;;;;2.90;2.70;;;;;;;;;;5525303;26;20265;-68
2024/04/25 08:05:40;;;;;;;3.03;2.80;;;;;;;;;;5523751;26;20240;-66
2024/04/25 08:08:14;;;;;;;2.30;2.07;;;;;;;;;;5524942;26;20222;-63
2024/04/25 08:10:48;;;;;;;2.40;2.30;;;;;;;;;;5524418;26;20713;-63
2024/04/25 08:13:18;;;;;;;4.63;2.10;;;;;;;;;;5524883;26;20321;-64
2024/04/25 08:15:46;;;;;;;2.40;2.30;;;;;;;;;;5525838;26;20227;-67
2024/04/25 08:18:15;;;;;;;2.83;2.50;;;;;;;;;;5525678;26;20219;-66
2024/04/25 08:20:44;;;;;;;3.03;2.63;;;;;;;;;;5524749;26;20219;-65
2024/04/25 08:23:16;;;;;;;3.53;3.20;;;;;;;;;;5525303;26;20230;-68
2024/04/25 08:25:47;;;;;;;3.20;3.00;;;;;;;;;;5525461;26;20219;-68
2024/04/25 08:28:16;;;;;;;2.30;2.20;;;;;;;;;;5525642;26;20226;-68
2024/04/25 08:30:45;;;;;;;2.27;2.17;;;;;;;;;;5524793;26;20257;-67
2024/04/25 08:33:14;;;;;;;2.80;2.50;;;;;;;;;;5524861;26;20234;-64
2024/04/25 08:35:43;;;;;;;2.77;2.57;;;;;;;;;;5525420;26;20258;-67
2024/04/25 08:38:12;;;;;;;3.10;2.63;;;;;;;;;;5525384;26;20248;-63
2024/04/25 08:40:41;;;;;;;2.43;2.33;;;;;;;;;;5524558;26;20597;-63
2024/04/25 08:43:16;;;;;;;2.17;2.07;;;;;;;;;;5525028;26;20236;-63
2024/04/25 08:45:45;;;;;;;2.70;1.90;;;;;;;;;;5526147;26;20257;-63
2024/04/25 08:48:16;;;;;;;2.23;2.13;;;;;;;;;;5525325;26;20253;-64
2024/04/25 08:50:47;;;;;;;2.97;2.63;;;;;;;;;;5524672;26;20217;-64
2024/04/25 08:53:17;;;;;;;2.03;1.57;;;;;;;;;;5524536;26;20284;-62
2024/04/25 08:55:47;;;;;;;2.40;2.20;;;;;;;;;;5523701;26;20226;-63
2024/04/25 08:58:18;;;;;;;5.03;2.00;;;;;;;;;;5522015;26;20600;-62
2024/04/25 09:00:47;;;;;;;2.47;2.00;;;;;;;;;;5524262;26;20219;-62
2024/04/25 09:03:17;;;;;;;1.60;1.57;;;;;;;;;;5530641;21;20266;-66
2024/04/25 09:05:46;;;;;;;3.30;2.53;;;;;;;;;;5483448;26;20280;-58
2024/04/25 09:08:15;;;;;;;2.63;2.07;;;;;;;;;;5513352;26;20267;-57
2024/04/25 09:10:45;;;;;;;4.17;2.50;;;;;;;;;;5523632;26;20257;-58
2024/04/25 09:13:15;;;;;;;2.23;2.10;;;;;;;;;;5440955;26;20255;-57
2024/04/25 09:15:46;;;;;;;2.17;2.07;;;;;;;;;;5448293;26;20235;-57
2024/04/25 09:18:15;;;;;;;2.10;2.00;;;;;;;;;;5457144;26;20223;-58
2024/04/25 09:20:44;;;;;;;2.23;2.13;;;;;;;;;;5434646;26;20293;-57
2024/04/25 09:23:15;;;;;;;1.47;1.37;;;;;;;;;;5430533;26;20239;-60
2024/04/25 09:25:43;;;;;;;2.00;1.40;;;;;;;;;;5463823;26;20238;-58
2024/04/25 09:28:13;;;;;;;2.50;2.40;;;;;;;;;;5476667;26;20237;-61
2024/04/25 09:30:41;;;;;;;3.50;3.27;;;;;;;;;;5473678;26;20276;-58
2024/04/25 09:33:13;;;;;;;4.70;3.60;;;;;;;;;;5417440;26;20277;-60
2024/04/25 09:35:44;;;;;;;2.40;2.17;;;;;;;;;;5434646;26;20283;-58
2024/04/25 09:38:14;;;;;;;1.97;1.87;;;;;;;;;;5431925;26;20787;-57
2024/04/25 09:40:44;;;;;;;2.73;2.30;;;;;;;;;;5441994;26;20283;-55
2024/04/25 09:43:17;;;;;;;1.80;1.70;;;;;;;;;;5427714;26;20233;-55
2024/04/25 09:45:46;;;;;;;2.17;1.97;;;;;;;;;;5440304;26;20264;-59
2024/04/25 09:48:20;;;;;;;1.83;1.73;;;;;;;;;;5431970;26;20276;-59
2024/04/25 09:50:50;;;;;;;2.03;1.93;;;;;;;;;;5439316;26;20316;-58
2024/04/25 09:53:22;;;;;;;2.17;2.07;;;;;;;;;;5436763;26;20236;-60
2024/04/25 09:55:51;;;;;;;1.60;1.50;;;;;;;;;;5429228;26;20225;-59
2024/04/25 09:58:24;;;;;;;2.00;1.90;;;;;;;;;;5451809;26;20238;-59
2024/04/25 10:00:54;;;;;;;2.17;2.03;;;;;;;;;;5413310;26;20745;-59
2024/04/25 10:03:25;;;;;;;1.70;1.60;;;;;;;;;;5443862;26;20231;-59
2024/04/25 10:05:55;;;;;;;2.13;1.93;;;;;;;;;;5411288;26;20753;-59
2024/04/25 10:08:24;;;;;;;1.20;1.10;;;;;;;;;;5406187;26;20233;-59
2024/04/25 10:10:53;;;;;;;1.27;1.27;;;;;;;;;;5431255;26;20277;-59
2024/04/25 10:13:26;;;;;;;2.77;1.60;;;;;;;;;;5407158;26;20294;-58
2024/04/25 10:15:56;;;;;;;2.30;1.77;;;;;;;;;;5408065;26;20282;-60
2024/04/25 10:18:28;;;;;;;3.93;2.97;;;;;;;;;;5407264;26;20272;-59
2024/04/25 10:21:04;;;;;;;2.30;2.10;;;;;;;;;;5411310;26;20238;-59
2024/04/25 10:23:34;;;;;;;2.73;1.77;;;;;;;;;;5419516;26;20736;-59
2024/04/25 10:26:03;;;;;;;2.90;2.00;;;;;;;;;;5415266;26;20230;-59
2024/04/25 10:28:32;;;;;;;1.50;1.50;;;;;;;;;;5407209;26;20241;-59
2024/04/25 10:31:01;;;;;;;2.07;1.97;;;;;;;;;;5429445;26;20339;-59
2024/04/25 10:33:33;;;;;;;1.50;1.00;;;;;;;;;;5406971;26;20234;-59
2024/04/25 10:36:05;;;;;;;3.43;1.30;;;;;;;;;;5407820;26;20238;-59
2024/04/25 10:38:34;;;;;;;2.43;1.47;;;;;;;;;;5411912;26;20288;-59
2024/04/25 10:41:03;;;;;;;1.10;1.10;;;;;;;;;;5411571;26;20856;-59
2024/04/25 10:43:32;;;;;;;1.27;1.27;;;;;;;;;;5416838;26;20238;-58
2024/04/25 10:46:02;;;;;;;3.50;2.07;;;;;;;;;;5415223;26;20276;-57
2024/04/25 10:48:33;;;;;;;2.00;1.90;;;;;;;;;;5408327;26;21090;-57
2024/04/25 10:51:02;;;;;;;1.37;1.27;;;;;;;;;;5426195;26;21109;-57
2024/04/25 10:53:31;;;;;;;1.33;1.20;;;;;;;;;;5444601;26;20333;-56
2024/04/25 10:56:00;;;;;;;2.07;1.87;;;;;;;;;;5419264;26;20243;-57
2024/04/25 10:58:29;;;;;;;2.40;2.10;;;;;;;;;;5419507;26;20232;-57
2024/04/25 11:00:58;;;;;;;3.07;1.60;;;;;;;;;;5464781;26;20225;-57
2024/04/25 11:03:27;;;;;;;2.03;1.37;;;;;;;;;;5472869;26;20998;-57
2024/04/25 11:05:58;;;;;;;1.70;0.90;;;;;;;;;;5451643;26;20229;-57
2024/04/25 11:08:28;;;;;;;2.37;1.13;;;;;;;;;;5442524;26;20281;-57
2024/04/25 11:10:59;;;;;;;1.20;0.90;;;;;;;;;;5442050;26;20229;-57
2024/04/25 11:13:28;;;;;;;1.60;1.10;;;;;;;;;;5434146;26;20779;-56
2024/04/25 11:15:58;;;;;;;4.93;1.10;;;;;;;;;;5427757;26;20265;-57
2024/04/25 11:18:27;;;;;;;1.30;1.20;;;;;;;;;;5441902;26;20272;-57
2024/04/25 11:20:59;;;;;;;1.70;1.30;;;;;;;;;;5441749;26;20225;-57
2024/04/25 11:23:27;;;;;;;2.87;1.80;;;;;;;;;;5442281;26;20285;-56
2024/04/25 11:25:59;;;;;;;0.80;0.80;;;;;;;;;;5442364;26;20226;-57
2024/04/25 11:28:28;;;;;;;1.73;1.10;;;;;;;;;;5440223;26;20233;-56
2024/04/25 11:30:57;;;;;;;1.77;0.87;;;;;;;;;;5439904;26;20231;-57
2024/04/25 11:33:26;;;;;;;0.80;0.80;;;;;;;;;;5440936;26;20267;-57
2024/04/25 11:35:56;;;;;;;0.87;0.87;;;;;;;;;;5426720;26;20267;-57
2024/04/25 11:38:28;;;;;;;2.10;1.10;;;;;;;;;;5476768;26;20789;-57
2024/04/25 11:40:58;;;;;;;2.70;1.00;;;;;;;;;;5437121;26;20229;-57
2024/04/25 11:43:28;;;;;;;1.73;0.80;;;;;;;;;;5450436;26;20271;-57
2024/04/25 11:45:57;;;;;;;1.27;0.70;;;;;;;;;;5455706;26;20229;-57
2024/04/25 11:48:27;;;;;;;0.73;0.73;;;;;;;;;;5495824;26;20235;-57
2024/04/25 11:50:56;;;;;;;1.00;0.90;;;;;;;;;;5478259;26;20615;-57
2024/04/25 11:53:28;;;;;;;0.93;0.80;;;;;;;;;;5435863;26;20283;-57
2024/04/25 11:55:57;;;;;;;1.13;0.90;;;;;;;;;;5466925;26;20271;-57
2024/04/25 11:58:26;;;;;;;2.57;0.97;;;;;;;;;;5457573;26;20237;-57
2024/04/25 12:00:54;;;;;;;2.73;2.07;;;;;;;;;;5490327;26;20727;-58
2024/04/25 12:03:23;;;;;;;3.13;1.57;;;;;;;;;;5525369;26;20232;-57
2024/04/25 12:05:52;;;;;;;2.50;1.63;;;;;;;;;;5525800;26;20227;-58
2024/04/25 12:08:21;;;;;;;2.67;1.77;;;;;;;;;;5469560;26;20234;-57
2024/04/25 12:10:53;;;;;;;1.80;1.70;;;;;;;;;;5497675;26;20230;-57
2024/04/25 12:13:22;;;;;;;1.90;1.80;;;;;;;;;;5525355;26;20226;-57
2024/04/25 12:15:51;;;;;;;4.07;2.43;;;;;;;;;;5525320;26;20549;-56
2024/04/25 12:18:20;;;;;;;1.80;1.70;;;;;;;;;;5493906;26;20231;-57
2024/04/25 12:20:49;;;;;;;1.77;1.67;;;;;;;;;;5484295;26;20224;-58
2024/04/25 12:23:18;;;;;;;3.13;1.90;;;;;;;;;;5478219;26;20732;-59
2024/04/25 12:25:50;;;;;;;2.60;2.00;;;;;;;;;;5525228;26;20218;-59
2024/04/25 12:28:21;;;;;;;1.87;1.77;;;;;;;;;;5525156;26;20574;-58
2024/04/25 12:30:50;;;;;;;2.70;1.93;;;;;;;;;;5523417;26;20257;-58
2024/04/25 12:33:19;;;;;;;2.17;1.50;;;;;;;;;;5524953;26;20231;-59
2024/04/25 12:35:48;;;;;;;5.53;1.87;;;;;;;;;;5524956;26;20694;-59
2024/04/25 12:38:17;;;;;;;2.10;1.90;;;;;;;;;;5434961;26;20235;-59
2024/04/25 12:40:46;;;;;;;4.27;1.50;;;;;;;;;;5409365;26;20281;-59
2024/04/25 12:43:14;;;;;;;2.43;2.23;;;;;;;;;;5441606;26;20275;-59
2024/04/25 12:45:49;;;;;;;3.57;1.73;;;;;;;;;;5441460;26;20608;-59
2024/04/25 12:48:18;;;;;;;2.93;2.30;;;;;;;;;;5441449;26;20218;-59
2024/04/25 12:50:47;;;;;;;2.00;1.50;;;;;;;;;;5440776;26;20225;-59
2024/04/25 12:53:16;;;;;;;4.60;2.83;;;;;;;;;;5436071;26;20237;-59
2024/04/25 12:55:46;;;;;;;4.23;1.90;;;;;;;;;;5404762;26;20239;-59
2024/04/25 12:58:15;;;;;;;2.77;2.23;;;;;;;;;;5405474;26;20221;-59
2024/04/25 13:00:47;;;;;;;3.97;2.00;;;;;;;;;;5406319;26;20222;-59
2024/04/25 13:03:15;;;;;;;5.10;4.13;;;;;;;;;;5439311;26;20233;-59
2024/04/25 13:05:45;;;;;;;3.00;2.37;;;;;;;;;;5441271;26;20266;-59
2024/04/25 13:08:13;;;;;;;5.50;2.20;;;;;;;;;;5440798;26;20232;-58
2024/04/25 13:10:44;;;;;;;2.90;2.30;;;;;;;;;;5439184;26;20224;-58
2024/04/25 13:13:16;;;;;;;3.67;1.90;;;;;;;;;;5441115;26;20258;-59
2024/04/25 13:15:48;;;;;;;2.27;2.07;;;;;;;;;;5441251;26;20221;-59
2024/04/25 13:18:18;;;;;;;4.87;2.77;;;;;;;;;;5441088;26;20600;-59
2024/04/25 13:20:48;;;;;;;3.63;2.50;;;;;;;;;;5440422;26;20261;-59
2024/04/25 13:23:17;;;;;;;2.23;1.83;;;;;;;;;;5440349;26;20241;-59
2024/04/25 13:25:46;;;;;;;2.60;1.73;;;;;;;;;;5440978;26;20220;-58
2024/04/25 13:28:15;;;;;;;2.67;2.47;;;;;;;;;;5440788;26;20221;-58
2024/04/25 13:30:43;;;;;;;2.77;2.17;;;;;;;;;;5440374;26;20758;-59
2024/04/25 13:33:15;;;;;;;2.77;2.20;;;;;;;;;;5440810;26;20283;-58
2024/04/25 13:35:44;;;;;;;2.07;1.93;;;;;;;;;;5440153;26;20269;-58
2024/04/25 13:38:13;;;;;;;3.43;2.93;;;;;;;;;;5440776;26;20267;-59
2024/04/25 13:40:42;;;;;;;3.63;1.83;;;;;;;;;;5440097;26;20219;-59
2024/04/25 13:43:13;;;;;;;2.20;2.00;;;;;;;;;;5440443;26;20234;-58
2024/04/25 13:45:43;;;;;;;3.90;2.03;;;;;;;;;;5425283;26;20675;-58
2024/04/25 13:48:15;;;;;;;2.50;2.33;;;;;;;;;;5404664;26;20265;-59
2024/04/25 13:50:44;;;;;;;2.43;2.23;;;;;;;;;;5404046;26;20564;-58
2024/04/25 13:53:14;;;;;;;2.97;2.63;;;;;;;;;;5438485;26;20288;-59
2024/04/25 13:55:43;;;;;;;3.53;3.23;;;;;;;;;;5440474;26;20221;-59
2024/04/25 13:58:12;;;;;;;1.93;1.83;;;;;;;;;;5440379;26;20224;-59
2024/04/25 14:00:41;;;;;;;2.80;2.40;;;;;;;;;;5439713;26;20269;-58
2024/04/25 14:03:16;;;;;;;3.53;2.53;;;;;;;;;;5437475;26;20240;-59
2024/04/25 14:05:45;;;;;;;2.27;2.07;;;;;;;;;;5435195;26;20230;-59
2024/04/25 14:08:14;;;;;;;2.83;2.60;;;;;;;;;;5411577;26;20225;-59
2024/04/25 14:10:42;;;;;;;3.60;2.37;;;;;;;;;;5403060;26;20214;-59
2024/04/25 14:13:15;;;;;;;2.23;2.03;;;;;;;;;;5404115;26;20234;-59
2024/04/25 14:15:44;;;;;;;3.70;2.70;;;;;;;;;;5404442;26;20221;-59
2024/04/25 14:18:17;;;;;;;2.23;2.10;;;;;;;;;;5404201;26;20226;-59
2024/04/25 14:20:46;;;;;;;3.67;2.20;;;;;;;;;;5430096;26;20733;-59
2024/04/25 14:23:15;;;;;;;2.97;2.07;;;;;;;;;;5429002;26;20233;-59
2024/04/25 14:28:52;;;;;;;3.77;2.13;;;;;;;;;;5457767;26;20338;-59
2024/04/25 14:31:21;;;;;;;4.80;2.53;;;;;;;;;;5434305;26;20230;-59
2024/04/25 14:33:53;;;;;;;2.93;2.57;;;;;;;;;;5435958;26;20231;-58
2024/04/25 14:36:22;;;;;;;4.33;2.03;;;;;;;;;;5429347;26;20751;-58
2024/04/25 14:38:50;;;;;;;3.23;2.30;;;;;;;;;;5439617;26;20231;-58
2024/04/25 14:41:20;;;;;;;2.57;2.40;;;;;;;;;;5431268;26;20231;-58
2024/04/25 14:43:49;;;;;;;10.33;3.37;;;;;;;;;;5473746;26;20309;-58
2024/04/25 14:46:18;;;;;;;4.80;2.57;;;;;;;;;;5439118;26;20229;-58
2024/04/25 14:48:47;;;;;;;2.10;1.87;;;;;;;;;;5435281;26;20276;-59
2024/04/25 14:51:18;;;;;;;2.93;2.63;;;;;;;;;;5438573;26;20283;-58
2024/04/25 14:53:47;;;;;;;5.07;2.90;;;;;;;;;;5429938;26;20232;-59
2024/04/25 14:56:16;;;;;;;3.00;2.70;;;;;;;;;;5442888;26;20268;-58
2024/04/25 14:58:45;;;;;;;2.00;1.90;;;;;;;;;;5442991;26;20268;-59
2024/04/25 15:01:19;;;;;;;2.70;2.50;;;;;;;;;;5438312;26;20234;-59
2024/04/25 15:03:48;;;;;;;7.83;3.47;;;;;;;;;;5443019;26;20287;-59
2024/04/25 15:06:20;;;;;;;2.30;2.10;;;;;;;;;;5454200;26;20268;-59